sensor_id;sensor_type;location;lat;lon;timestamp;P1;durP1;ratioP1;P2;durP2;ratioP2
48578;SDS011;34357;51.948;6.132;2023-03-29T00:01:57;8.55;;;4.60;;
48578;SDS011;34357;51.948;6.132;2023-03-29T00:04:23;6.70;;;4.20;;
48578;SDS011;34357;51.948;6.132;2023-03-29T00:06:54;6.78;;;4.18;;
48578;SDS011;34357;51.948;6.132;2023-03-29T00:09:21;6.78;;;4.10;;
48578;SDS011;34357;51.948;6.132;2023-03-29T00:11:47;11.52;;;4.72;;
48578;SDS011;34357;51.948;6.132;2023-03-29T00:14:13;11.95;;;4.10;;
48578;SDS011;34357;51.948;6.132;2023-03-29T00:16:38;8.23;;;4.32;;
48578;SDS011;34357;51.948;6.132;2023-03-29T00:19:04;8.38;;;4.00;;
48578;SDS011;34357;51.948;6.132;2023-03-29T00:21:30;10.45;;;4.40;;
48578;SDS011;34357;51.948;6.132;2023-03-29T00:23:56;8.18;;;4.35;;
48578;SDS011;34357;51.948;6.132;2023-03-29T00:26:22;7.70;;;4.53;;
48578;SDS011;34357;51.948;6.132;2023-03-29T00:28:47;10.52;;;5.07;;
48578;SDS011;34357;51.948;6.132;2023-03-29T00:31:14;10.25;;;4.88;;
48578;SDS011;34357;51.948;6.132;2023-03-29T00:33:42;7.90;;;4.78;;
48578;SDS011;34357;51.948;6.132;2023-03-29T00:36:10;8.48;;;4.57;;
48578;SDS011;34357;51.948;6.132;2023-03-29T00:38:37;11.35;;;5.30;;
48578;SDS011;34357;51.948;6.132;2023-03-29T00:41:04;7.72;;;5.65;;
48578;SDS011;34357;51.948;6.132;2023-03-29T00:43:55;10.25;;;5.20;;
48578;SDS011;34357;51.948;6.132;2023-03-29T00:46:27;9.57;;;4.95;;
48578;SDS011;34357;51.948;6.132;2023-03-29T00:48:56;9.23;;;5.88;;
48578;SDS011;34357;51.948;6.132;2023-03-29T00:51:28;8.13;;;5.30;;
48578;SDS011;34357;51.948;6.132;2023-03-29T00:53:57;8.30;;;4.78;;
48578;SDS011;34357;51.948;6.132;2023-03-29T00:56:28;9.15;;;4.80;;
48578;SDS011;34357;51.948;6.132;2023-03-29T01:01:32;8.27;;;4.60;;
48578;SDS011;34357;51.948;6.132;2023-03-29T01:04:08;7.65;;;5.03;;
48578;SDS011;34357;51.948;6.132;2023-03-29T01:06:44;6.40;;;4.82;;
48578;SDS011;34357;51.948;6.132;2023-03-29T01:09:15;9.82;;;5.57;;
48578;SDS011;34357;51.948;6.132;2023-03-29T01:11:45;9.32;;;5.25;;
48578;SDS011;34357;51.948;6.132;2023-03-29T01:14:25;10.13;;;5.13;;
48578;SDS011;34357;51.948;6.132;2023-03-29T01:17:01;8.13;;;5.18;;
48578;SDS011;34357;51.948;6.132;2023-03-29T01:19:30;8.40;;;5.05;;
48578;SDS011;34357;51.948;6.132;2023-03-29T01:30:04;9.60;;;5.40;;
48578;SDS011;34357;51.948;6.132;2023-03-29T01:32:48;11.85;;;6.18;;
48578;SDS011;34357;51.948;6.132;2023-03-29T01:35:21;10.43;;;5.88;;
48578;SDS011;34357;51.948;6.132;2023-03-29T01:38:13;12.35;;;5.90;;
48578;SDS011;34357;51.948;6.132;2023-03-29T01:40:44;9.55;;;5.55;;
48578;SDS011;34357;51.948;6.132;2023-03-29T01:43:17;10.52;;;5.65;;
48578;SDS011;34357;51.948;6.132;2023-03-29T01:48:23;12.70;;;6.53;;
48578;SDS011;34357;51.948;6.132;2023-03-29T01:51:09;10.77;;;6.75;;
48578;SDS011;34357;51.948;6.132;2023-03-29T01:54:02;12.55;;;6.38;;
48578;SDS011;34357;51.948;6.132;2023-03-29T01:56:28;9.75;;;5.75;;
48578;SDS011;34357;51.948;6.132;2023-03-29T01:59:02;9.25;;;6.22;;
48578;SDS011;34357;51.948;6.132;2023-03-29T02:01:37;11.18;;;6.25;;
48578;SDS011;34357;51.948;6.132;2023-03-29T02:04:11;9.10;;;5.68;;
48578;SDS011;34357;51.948;6.132;2023-03-29T02:06:41;11.48;;;5.57;;
48578;SDS011;34357;51.948;6.132;2023-03-29T02:09:08;11.30;;;5.38;;
48578;SDS011;34357;51.948;6.132;2023-03-29T02:11:34;7.75;;;4.55;;
48578;SDS011;34357;51.948;6.132;2023-03-29T02:14:01;7.35;;;4.13;;
48578;SDS011;34357;51.948;6.132;2023-03-29T02:16:26;9.07;;;4.97;;
48578;SDS011;34357;51.948;6.132;2023-03-29T02:18:53;6.93;;;4.30;;
48578;SDS011;34357;51.948;6.132;2023-03-29T02:23:52;11.38;;;4.68;;
48578;SDS011;34357;51.948;6.132;2023-03-29T02:26:21;10.48;;;4.07;;
48578;SDS011;34357;51.948;6.132;2023-03-29T02:28:48;8.15;;;4.45;;
48578;SDS011;34357;51.948;6.132;2023-03-29T02:31:21;7.28;;;3.90;;
48578;SDS011;34357;51.948;6.132;2023-03-29T02:33:57;7.18;;;4.03;;
48578;SDS011;34357;51.948;6.132;2023-03-29T02:39:04;7.07;;;3.95;;
48578;SDS011;34357;51.948;6.132;2023-03-29T02:41:32;8.38;;;4.15;;
48578;SDS011;34357;51.948;6.132;2023-03-29T02:44:01;6.25;;;3.92;;
48578;SDS011;34357;51.948;6.132;2023-03-29T02:46:29;9.15;;;3.95;;
48578;SDS011;34357;51.948;6.132;2023-03-29T02:48:55;7.72;;;3.95;;
48578;SDS011;34357;51.948;6.132;2023-03-29T02:51:23;7.22;;;3.97;;
48578;SDS011;34357;51.948;6.132;2023-03-29T02:56:53;6.40;;;4.15;;
48578;SDS011;34357;51.948;6.132;2023-03-29T02:59:21;6.72;;;4.60;;
48578;SDS011;34357;51.948;6.132;2023-03-29T03:01:47;10.75;;;5.03;;
48578;SDS011;34357;51.948;6.132;2023-03-29T03:04:14;10.23;;;5.07;;
48578;SDS011;34357;51.948;6.132;2023-03-29T03:06:42;8.20;;;4.78;;
48578;SDS011;34357;51.948;6.132;2023-03-29T03:09:09;8.20;;;4.88;;
48578;SDS011;34357;51.948;6.132;2023-03-29T03:11:38;10.15;;;5.03;;
48578;SDS011;34357;51.948;6.132;2023-03-29T03:14:05;8.15;;;5.35;;
48578;SDS011;34357;51.948;6.132;2023-03-29T03:16:31;10.07;;;5.82;;
48578;SDS011;34357;51.948;6.132;2023-03-29T03:18:58;12.10;;;6.15;;
48578;SDS011;34357;51.948;6.132;2023-03-29T03:21:25;9.95;;;6.18;;
48578;SDS011;34357;51.948;6.132;2023-03-29T03:23:54;11.57;;;6.47;;
48578;SDS011;34357;51.948;6.132;2023-03-29T03:26:20;14.25;;;6.75;;
48578;SDS011;34357;51.948;6.132;2023-03-29T03:28:47;14.27;;;7.45;;
48578;SDS011;34357;51.948;6.132;2023-03-29T03:31:33;11.75;;;7.88;;
48578;SDS011;34357;51.948;6.132;2023-03-29T03:34:19;17.13;;;10.90;;
48578;SDS011;34357;51.948;6.132;2023-03-29T03:36:55;16.88;;;11.55;;
48578;SDS011;34357;51.948;6.132;2023-03-29T03:39:21;17.15;;;12.80;;
48578;SDS011;34357;51.948;6.132;2023-03-29T03:41:47;15.50;;;11.63;;
48578;SDS011;34357;51.948;6.132;2023-03-29T03:44:15;14.48;;;11.27;;
48578;SDS011;34357;51.948;6.132;2023-03-29T03:46:42;12.77;;;8.95;;
48578;SDS011;34357;51.948;6.132;2023-03-29T03:49:08;14.82;;;8.63;;
48578;SDS011;34357;51.948;6.132;2023-03-29T03:51:37;13.07;;;8.18;;
48578;SDS011;34357;51.948;6.132;2023-03-29T03:54:04;12.32;;;8.35;;
48578;SDS011;34357;51.948;6.132;2023-03-29T03:56:30;15.23;;;8.05;;
48578;SDS011;34357;51.948;6.132;2023-03-29T03:59:13;16.25;;;8.52;;
48578;SDS011;34357;51.948;6.132;2023-03-29T04:01:57;26.95;;;8.70;;
48578;SDS011;34357;51.948;6.132;2023-03-29T04:04:24;14.82;;;8.43;;
48578;SDS011;34357;51.948;6.132;2023-03-29T04:07:10;13.07;;;8.07;;
48578;SDS011;34357;51.948;6.132;2023-03-29T04:10:07;14.60;;;8.23;;
48578;SDS011;34357;51.948;6.132;2023-03-29T04:12:49;14.85;;;8.77;;
48578;SDS011;34357;51.948;6.132;2023-03-29T04:15:15;15.65;;;8.20;;
48578;SDS011;34357;51.948;6.132;2023-03-29T04:17:48;13.93;;;8.18;;
48578;SDS011;34357;51.948;6.132;2023-03-29T04:20:16;15.55;;;8.48;;
48578;SDS011;34357;51.948;6.132;2023-03-29T04:22:43;14.93;;;8.07;;
48578;SDS011;34357;51.948;6.132;2023-03-29T04:25:09;13.50;;;7.85;;
48578;SDS011;34357;51.948;6.132;2023-03-29T04:27:48;15.13;;;8.27;;
48578;SDS011;34357;51.948;6.132;2023-03-29T04:30:46;14.32;;;7.93;;
48578;SDS011;34357;51.948;6.132;2023-03-29T04:33:30;13.68;;;7.80;;
48578;SDS011;34357;51.948;6.132;2023-03-29T04:35:58;14.20;;;7.63;;
48578;SDS011;34357;51.948;6.132;2023-03-29T04:38:24;12.90;;;7.22;;
48578;SDS011;34357;51.948;6.132;2023-03-29T04:40:52;9.93;;;7.10;;
48578;SDS011;34357;51.948;6.132;2023-03-29T04:43:36;16.23;;;7.63;;
48578;SDS011;34357;51.948;6.132;2023-03-29T04:46:21;10.75;;;7.03;;
48578;SDS011;34357;51.948;6.132;2023-03-29T04:49:02;15.93;;;7.90;;
48578;SDS011;34357;51.948;6.132;2023-03-29T04:51:36;10.57;;;6.53;;
48578;SDS011;34357;51.948;6.132;2023-03-29T04:54:02;12.98;;;6.05;;
48578;SDS011;34357;51.948;6.132;2023-03-29T04:56:32;13.40;;;6.68;;
48578;SDS011;34357;51.948;6.132;2023-03-29T04:59:26;10.45;;;6.05;;
48578;SDS011;34357;51.948;6.132;2023-03-29T05:01:52;10.70;;;6.53;;
48578;SDS011;34357;51.948;6.132;2023-03-29T05:04:18;12.52;;;5.75;;
48578;SDS011;34357;51.948;6.132;2023-03-29T05:06:59;10.70;;;6.25;;
48578;SDS011;34357;51.948;6.132;2023-03-29T05:09:26;11.90;;;6.50;;
48578;SDS011;34357;51.948;6.132;2023-03-29T05:11:52;14.07;;;6.43;;
48578;SDS011;34357;51.948;6.132;2023-03-29T05:14:19;15.15;;;6.65;;
48578;SDS011;34357;51.948;6.132;2023-03-29T05:16:45;11.75;;;6.47;;
48578;SDS011;34357;51.948;6.132;2023-03-29T05:19:10;14.27;;;7.18;;
48578;SDS011;34357;51.948;6.132;2023-03-29T05:21:40;10.10;;;6.00;;
48578;SDS011;34357;51.948;6.132;2023-03-29T05:24:10;10.43;;;6.20;;
48578;SDS011;34357;51.948;6.132;2023-03-29T05:26:51;9.52;;;6.38;;
48578;SDS011;34357;51.948;6.132;2023-03-29T05:29:17;14.57;;;6.55;;
48578;SDS011;34357;51.948;6.132;2023-03-29T05:31:48;11.90;;;6.60;;
48578;SDS011;34357;51.948;6.132;2023-03-29T05:34:15;12.57;;;6.82;;
48578;SDS011;34357;51.948;6.132;2023-03-29T05:36:45;11.52;;;6.38;;
48578;SDS011;34357;51.948;6.132;2023-03-29T05:39:11;10.52;;;7.10;;
48578;SDS011;34357;51.948;6.132;2023-03-29T05:41:38;13.02;;;6.53;;
48578;SDS011;34357;51.948;6.132;2023-03-29T05:44:32;16.75;;;6.65;;
48578;SDS011;34357;51.948;6.132;2023-03-29T05:47:08;12.18;;;7.20;;
48578;SDS011;34357;51.948;6.132;2023-03-29T05:49:33;11.75;;;6.63;;
48578;SDS011;34357;51.948;6.132;2023-03-29T05:52:04;10.68;;;7.05;;
48578;SDS011;34357;51.948;6.132;2023-03-29T05:54:31;13.57;;;7.13;;
48578;SDS011;34357;51.948;6.132;2023-03-29T05:56:57;13.10;;;6.63;;
48578;SDS011;34357;51.948;6.132;2023-03-29T05:59:24;12.60;;;7.05;;
48578;SDS011;34357;51.948;6.132;2023-03-29T06:01:52;12.88;;;7.13;;
48578;SDS011;34357;51.948;6.132;2023-03-29T06:04:19;10.20;;;6.50;;
48578;SDS011;34357;51.948;6.132;2023-03-29T06:07:14;13.35;;;7.22;;
48578;SDS011;34357;51.948;6.132;2023-03-29T06:09:47;15.55;;;7.22;;
48578;SDS011;34357;51.948;6.132;2023-03-29T06:12:14;11.43;;;7.63;;
48578;SDS011;34357;51.948;6.132;2023-03-29T06:14:50;14.32;;;7.70;;
48578;SDS011;34357;51.948;6.132;2023-03-29T06:17:26;12.05;;;7.75;;
48578;SDS011;34357;51.948;6.132;2023-03-29T06:19:52;15.07;;;7.43;;
48578;SDS011;34357;51.948;6.132;2023-03-29T06:22:20;15.02;;;7.40;;
48578;SDS011;34357;51.948;6.132;2023-03-29T06:24:46;9.45;;;7.13;;
48578;SDS011;34357;51.948;6.132;2023-03-29T06:27:20;12.43;;;7.18;;
48578;SDS011;34357;51.948;6.132;2023-03-29T06:29:48;14.38;;;7.85;;
48578;SDS011;34357;51.948;6.132;2023-03-29T06:32:13;9.70;;;6.13;;
48578;SDS011;34357;51.948;6.132;2023-03-29T06:34:55;9.88;;;7.07;;
48578;SDS011;34357;51.948;6.132;2023-03-29T06:37:32;9.43;;;6.57;;
48578;SDS011;34357;51.948;6.132;2023-03-29T06:40:16;11.85;;;7.05;;
48578;SDS011;34357;51.948;6.132;2023-03-29T06:42:44;13.00;;;6.55;;
48578;SDS011;34357;51.948;6.132;2023-03-29T06:45:31;11.82;;;6.07;;
48578;SDS011;34357;51.948;6.132;2023-03-29T06:48:02;10.52;;;6.60;;
48578;SDS011;34357;51.948;6.132;2023-03-29T06:50:29;14.73;;;6.70;;
48578;SDS011;34357;51.948;6.132;2023-03-29T06:53:05;13.50;;;6.63;;
48578;SDS011;34357;51.948;6.132;2023-03-29T06:55:32;14.85;;;6.15;;
48578;SDS011;34357;51.948;6.132;2023-03-29T06:58:10;14.55;;;4.80;;
48578;SDS011;34357;51.948;6.132;2023-03-29T07:00:36;9.65;;;4.70;;
48578;SDS011;34357;51.948;6.132;2023-03-29T07:03:07;13.40;;;5.45;;
48578;SDS011;34357;51.948;6.132;2023-03-29T07:05:46;14.80;;;5.60;;
48578;SDS011;34357;51.948;6.132;2023-03-29T07:08:14;7.28;;;4.75;;
48578;SDS011;34357;51.948;6.132;2023-03-29T07:10:54;10.07;;;5.18;;
48578;SDS011;34357;51.948;6.132;2023-03-29T07:13:49;13.90;;;5.75;;
48578;SDS011;34357;51.948;6.132;2023-03-29T07:16:17;10.40;;;5.60;;
48578;SDS011;34357;51.948;6.132;2023-03-29T07:18:48;13.68;;;5.57;;
48578;SDS011;34357;51.948;6.132;2023-03-29T07:21:40;11.77;;;5.18;;
48578;SDS011;34357;51.948;6.132;2023-03-29T07:24:06;8.98;;;5.32;;
48578;SDS011;34357;51.948;6.132;2023-03-29T07:26:34;7.20;;;5.30;;
48578;SDS011;34357;51.948;6.132;2023-03-29T07:29:00;11.73;;;5.50;;
48578;SDS011;34357;51.948;6.132;2023-03-29T07:31:25;12.50;;;5.97;;
48578;SDS011;34357;51.948;6.132;2023-03-29T07:34:00;10.43;;;6.28;;
48578;SDS011;34357;51.948;6.132;2023-03-29T07:36:30;11.50;;;6.60;;
48578;SDS011;34357;51.948;6.132;2023-03-29T07:38:58;14.23;;;7.50;;
48578;SDS011;34357;51.948;6.132;2023-03-29T07:41:26;13.13;;;6.53;;
48578;SDS011;34357;51.948;6.132;2023-03-29T07:44:04;9.00;;;5.70;;
48578;SDS011;34357;51.948;6.132;2023-03-29T07:46:33;8.68;;;5.18;;
48578;SDS011;34357;51.948;6.132;2023-03-29T07:49:00;10.85;;;5.50;;
48578;SDS011;34357;51.948;6.132;2023-03-29T07:51:27;9.65;;;4.63;;
48578;SDS011;34357;51.948;6.132;2023-03-29T07:54:01;9.20;;;5.50;;
48578;SDS011;34357;51.948;6.132;2023-03-29T07:56:46;10.13;;;4.70;;
48578;SDS011;34357;51.948;6.132;2023-03-29T07:59:19;12.85;;;5.40;;
48578;SDS011;34357;51.948;6.132;2023-03-29T08:01:52;10.27;;;4.82;;
48578;SDS011;34357;51.948;6.132;2023-03-29T08:04:36;8.57;;;4.63;;
48578;SDS011;34357;51.948;6.132;2023-03-29T08:07:15;14.32;;;4.75;;
48578;SDS011;34357;51.948;6.132;2023-03-29T08:10:09;8.93;;;4.43;;
48578;SDS011;34357;51.948;6.132;2023-03-29T08:13:07;9.47;;;4.70;;
48578;SDS011;34357;51.948;6.132;2023-03-29T08:15:44;8.18;;;4.75;;
48578;SDS011;34357;51.948;6.132;2023-03-29T08:20:51;9.23;;;5.00;;
48578;SDS011;34357;51.948;6.132;2023-03-29T08:23:17;11.43;;;4.80;;
48578;SDS011;34357;51.948;6.132;2023-03-29T08:26:12;7.65;;;4.85;;
48578;SDS011;34357;51.948;6.132;2023-03-29T08:28:40;10.23;;;5.05;;
48578;SDS011;34357;51.948;6.132;2023-03-29T08:31:07;8.05;;;4.72;;
48578;SDS011;34357;51.948;6.132;2023-03-29T08:33:40;8.85;;;5.10;;
48578;SDS011;34357;51.948;6.132;2023-03-29T08:36:27;10.85;;;5.20;;
48578;SDS011;34357;51.948;6.132;2023-03-29T08:38:55;8.52;;;5.22;;
48578;SDS011;34357;51.948;6.132;2023-03-29T08:41:33;11.85;;;5.47;;
48578;SDS011;34357;51.948;6.132;2023-03-29T08:49:34;7.22;;;4.60;;
48578;SDS011;34357;51.948;6.132;2023-03-29T08:52:07;13.30;;;5.10;;
48578;SDS011;34357;51.948;6.132;2023-03-29T08:54:43;10.70;;;5.57;;
48578;SDS011;34357;51.948;6.132;2023-03-29T08:57:21;13.43;;;5.72;;
48578;SDS011;34357;51.948;6.132;2023-03-29T09:00:00;10.95;;;5.65;;
48578;SDS011;34357;51.948;6.132;2023-03-29T09:02:32;13.30;;;6.15;;
48578;SDS011;34357;51.948;6.132;2023-03-29T09:05:24;9.88;;;5.82;;
48578;SDS011;34357;51.948;6.132;2023-03-29T09:08:19;10.88;;;5.78;;
48578;SDS011;34357;51.948;6.132;2023-03-29T09:11:08;13.55;;;6.32;;
48578;SDS011;34357;51.948;6.132;2023-03-29T09:16:42;12.55;;;6.20;;
48578;SDS011;34357;51.948;6.132;2023-03-29T09:19:25;14.90;;;7.22;;
48578;SDS011;34357;51.948;6.132;2023-03-29T09:27:57;18.40;;;7.30;;
48578;SDS011;34357;51.948;6.132;2023-03-29T09:30:55;18.60;;;8.15;;
48578;SDS011;34357;51.948;6.132;2023-03-29T09:33:43;12.82;;;7.10;;
48578;SDS011;34357;51.948;6.132;2023-03-29T09:36:26;17.08;;;7.95;;
48578;SDS011;34357;51.948;6.132;2023-03-29T09:38:55;19.23;;;8.85;;
48578;SDS011;34357;51.948;6.132;2023-03-29T09:43:54;16.48;;;9.32;;
48578;SDS011;34357;51.948;6.132;2023-03-29T09:46:33;21.77;;;10.10;;
48578;SDS011;34357;51.948;6.132;2023-03-29T09:49:05;19.42;;;10.05;;
48578;SDS011;34357;51.948;6.132;2023-03-29T09:51:36;17.58;;;10.40;;
48578;SDS011;34357;51.948;6.132;2023-03-29T09:54:04;15.68;;;9.15;;
48578;SDS011;34357;51.948;6.132;2023-03-29T09:56:50;19.30;;;10.93;;
48578;SDS011;34357;51.948;6.132;2023-03-29T09:59:19;17.95;;;9.80;;
48578;SDS011;34357;51.948;6.132;2023-03-29T10:01:45;18.05;;;10.18;;
48578;SDS011;34357;51.948;6.132;2023-03-29T10:04:12;19.50;;;11.20;;
48578;SDS011;34357;51.948;6.132;2023-03-29T10:06:43;18.25;;;9.73;;
48578;SDS011;34357;51.948;6.132;2023-03-29T10:09:15;16.00;;;9.88;;
48578;SDS011;34357;51.948;6.132;2023-03-29T10:11:47;17.52;;;9.73;;
48578;SDS011;34357;51.948;6.132;2023-03-29T10:16:55;14.98;;;9.23;;
48578;SDS011;34357;51.948;6.132;2023-03-29T10:19:28;14.50;;;8.98;;
48578;SDS011;34357;51.948;6.132;2023-03-29T10:22:01;13.27;;;9.50;;
48578;SDS011;34357;51.948;6.132;2023-03-29T10:24:36;12.65;;;8.15;;
48578;SDS011;34357;51.948;6.132;2023-03-29T10:27:08;12.90;;;8.43;;
48578;SDS011;34357;51.948;6.132;2023-03-29T10:29:37;14.63;;;9.05;;
48578;SDS011;34357;51.948;6.132;2023-03-29T10:32:14;10.02;;;6.45;;
48578;SDS011;34357;51.948;6.132;2023-03-29T10:34:40;12.88;;;8.57;;
48578;SDS011;34357;51.948;6.132;2023-03-29T10:37:07;13.73;;;8.90;;
48578;SDS011;34357;51.948;6.132;2023-03-29T10:39:34;16.15;;;8.57;;
48578;SDS011;34357;51.948;6.132;2023-03-29T10:42:01;14.15;;;9.40;;
48578;SDS011;34357;51.948;6.132;2023-03-29T10:47:11;14.13;;;8.80;;
48578;SDS011;34357;51.948;6.132;2023-03-29T10:49:45;14.50;;;8.60;;
48578;SDS011;34357;51.948;6.132;2023-03-29T10:54:42;14.48;;;8.10;;
48578;SDS011;34357;51.948;6.132;2023-03-29T10:57:09;14.00;;;10.02;;
48578;SDS011;34357;51.948;6.132;2023-03-29T11:07:31;18.58;;;9.15;;
48578;SDS011;34357;51.948;6.132;2023-03-29T11:12:48;17.35;;;9.65;;
48578;SDS011;34357;51.948;6.132;2023-03-29T11:26:38;18.17;;;8.55;;
48578;SDS011;34357;51.948;6.132;2023-03-29T11:35:12;13.93;;;7.70;;
48578;SDS011;34357;51.948;6.132;2023-03-29T11:43:03;14.48;;;8.75;;
48578;SDS011;34357;51.948;6.132;2023-03-29T11:45:36;12.75;;;8.15;;
48578;SDS011;34357;51.948;6.132;2023-03-29T11:48:10;13.55;;;8.15;;
48578;SDS011;34357;51.948;6.132;2023-03-29T11:50:44;11.70;;;7.10;;
48578;SDS011;34357;51.948;6.132;2023-03-29T11:53:19;12.63;;;7.63;;
48578;SDS011;34357;51.948;6.132;2023-03-29T11:56:05;10.20;;;6.93;;
48578;SDS011;34357;51.948;6.132;2023-03-29T11:58:37;11.15;;;6.63;;
48578;SDS011;34357;51.948;6.132;2023-03-29T12:01:11;7.40;;;6.65;;
48578;SDS011;34357;51.948;6.132;2023-03-29T12:03:42;11.85;;;7.28;;
48578;SDS011;34357;51.948;6.132;2023-03-29T12:06:37;10.43;;;6.10;;
48578;SDS011;34357;51.948;6.132;2023-03-29T12:09:15;10.35;;;7.00;;
48578;SDS011;34357;51.948;6.132;2023-03-29T12:12:12;10.57;;;6.50;;
48578;SDS011;34357;51.948;6.132;2023-03-29T12:17:36;10.70;;;6.53;;
48578;SDS011;34357;51.948;6.132;2023-03-29T12:22:44;11.23;;;7.40;;
48578;SDS011;34357;51.948;6.132;2023-03-29T12:25:14;12.45;;;7.28;;
48578;SDS011;34357;51.948;6.132;2023-03-29T12:35:53;12.82;;;7.68;;
48578;SDS011;34357;51.948;6.132;2023-03-29T12:39:19;9.52;;;6.93;;
48578;SDS011;34357;51.948;6.132;2023-03-29T12:42:14;13.57;;;7.97;;
48578;SDS011;34357;51.948;6.132;2023-03-29T12:45:18;9.77;;;7.53;;
48578;SDS011;34357;51.948;6.132;2023-03-29T12:47:46;10.70;;;7.07;;
48578;SDS011;34357;51.948;6.132;2023-03-29T12:50:21;11.30;;;7.85;;
48578;SDS011;34357;51.948;6.132;2023-03-29T12:53:16;14.00;;;8.02;;
48578;SDS011;34357;51.948;6.132;2023-03-29T12:58:36;11.77;;;7.53;;
48578;SDS011;34357;51.948;6.132;2023-03-29T13:01:21;12.43;;;7.60;;
48578;SDS011;34357;51.948;6.132;2023-03-29T13:03:56;11.52;;;6.85;;
48578;SDS011;34357;51.948;6.132;2023-03-29T13:11:54;16.02;;;7.57;;
48578;SDS011;34357;51.948;6.132;2023-03-29T13:14:28;10.23;;;7.05;;
48578;SDS011;34357;51.948;6.132;2023-03-29T13:17:01;10.90;;;7.50;;
48578;SDS011;34357;51.948;6.132;2023-03-29T13:19:42;10.13;;;7.20;;
48578;SDS011;34357;51.948;6.132;2023-03-29T13:25:38;10.95;;;7.60;;
48578;SDS011;34357;51.948;6.132;2023-03-29T13:31:17;9.85;;;7.07;;
48578;SDS011;34357;51.948;6.132;2023-03-29T13:34:02;11.80;;;7.43;;
48578;SDS011;34357;51.948;6.132;2023-03-29T13:39:29;10.13;;;7.00;;
48578;SDS011;34357;51.948;6.132;2023-03-29T13:42:17;11.68;;;7.13;;
48578;SDS011;34357;51.948;6.132;2023-03-29T13:47:46;11.77;;;7.55;;
48578;SDS011;34357;51.948;6.132;2023-03-29T13:50:19;11.63;;;7.90;;
48578;SDS011;34357;51.948;6.132;2023-03-29T13:52:58;15.63;;;7.70;;
48578;SDS011;34357;51.948;6.132;2023-03-29T13:55:30;12.45;;;7.30;;
48578;SDS011;34357;51.948;6.132;2023-03-29T13:58:03;13.07;;;7.60;;
48578;SDS011;34357;51.948;6.132;2023-03-29T14:00:41;15.57;;;7.55;;
48578;SDS011;34357;51.948;6.132;2023-03-29T14:03:13;12.52;;;7.68;;
48578;SDS011;34357;51.948;6.132;2023-03-29T14:05:43;14.65;;;8.32;;
48578;SDS011;34357;51.948;6.132;2023-03-29T14:08:14;9.95;;;7.90;;
48578;SDS011;34357;51.948;6.132;2023-03-29T14:10:53;12.55;;;7.43;;
48578;SDS011;34357;51.948;6.132;2023-03-29T14:13:20;10.05;;;7.10;;
48578;SDS011;34357;51.948;6.132;2023-03-29T14:15:51;9.13;;;6.55;;
48578;SDS011;34357;51.948;6.132;2023-03-29T14:18:23;10.10;;;7.22;;
48578;SDS011;34357;51.948;6.132;2023-03-29T14:20:50;11.73;;;7.20;;
48578;SDS011;34357;51.948;6.132;2023-03-29T14:23:22;14.98;;;6.70;;
48578;SDS011;34357;51.948;6.132;2023-03-29T14:25:50;11.68;;;7.82;;
48578;SDS011;34357;51.948;6.132;2023-03-29T14:30:49;11.50;;;6.78;;
48578;SDS011;34357;51.948;6.132;2023-03-29T14:33:26;9.93;;;6.30;;
48578;SDS011;34357;51.948;6.132;2023-03-29T14:35:53;9.98;;;6.70;;
48578;SDS011;34357;51.948;6.132;2023-03-29T14:38:21;10.15;;;6.20;;
48578;SDS011;34357;51.948;6.132;2023-03-29T14:40:48;13.35;;;6.32;;
48578;SDS011;34357;51.948;6.132;2023-03-29T14:43:18;13.07;;;6.63;;
48578;SDS011;34357;51.948;6.132;2023-03-29T14:45:48;8.80;;;5.78;;
48578;SDS011;34357;51.948;6.132;2023-03-29T14:48:14;15.77;;;6.22;;
48578;SDS011;34357;51.948;6.132;2023-03-29T14:50:41;9.93;;;5.93;;
48578;SDS011;34357;51.948;6.132;2023-03-29T14:53:09;9.15;;;6.18;;
48578;SDS011;34357;51.948;6.132;2023-03-29T14:55:42;10.63;;;6.40;;
48578;SDS011;34357;51.948;6.132;2023-03-29T14:58:16;9.27;;;6.20;;
48578;SDS011;34357;51.948;6.132;2023-03-29T15:00:47;13.23;;;5.95;;
48578;SDS011;34357;51.948;6.132;2023-03-29T15:03:14;9.35;;;6.10;;
48578;SDS011;34357;51.948;6.132;2023-03-29T15:05:56;7.63;;;5.72;;
48578;SDS011;34357;51.948;6.132;2023-03-29T15:08:29;12.90;;;6.35;;
48578;SDS011;34357;51.948;6.132;2023-03-29T15:10:58;12.75;;;6.78;;
48578;SDS011;34357;51.948;6.132;2023-03-29T15:13:24;9.95;;;6.15;;
48578;SDS011;34357;51.948;6.132;2023-03-29T15:15:52;13.40;;;6.38;;
48578;SDS011;34357;51.948;6.132;2023-03-29T15:18:24;12.67;;;6.23;;
48578;SDS011;34357;51.948;6.132;2023-03-29T15:21:12;9.85;;;6.78;;
48578;SDS011;34357;51.948;6.132;2023-03-29T15:23:50;9.50;;;6.80;;
48578;SDS011;34357;51.948;6.132;2023-03-29T15:26:20;13.95;;;6.60;;
48578;SDS011;34357;51.948;6.132;2023-03-29T15:28:51;12.95;;;6.68;;
48578;SDS011;34357;51.948;6.132;2023-03-29T15:31:25;9.55;;;6.00;;
48578;SDS011;34357;51.948;6.132;2023-03-29T15:34:04;13.30;;;6.80;;
48578;SDS011;34357;51.948;6.132;2023-03-29T15:36:32;10.57;;;5.68;;
48578;SDS011;34357;51.948;6.132;2023-03-29T15:38:58;10.50;;;5.55;;
48578;SDS011;34357;51.948;6.132;2023-03-29T15:41:25;8.15;;;5.28;;
48578;SDS011;34357;51.948;6.132;2023-03-29T15:43:52;13.00;;;6.32;;
48578;SDS011;34357;51.948;6.132;2023-03-29T15:46:19;12.82;;;5.60;;
48578;SDS011;34357;51.948;6.132;2023-03-29T15:48:45;8.30;;;5.22;;
48578;SDS011;34357;51.948;6.132;2023-03-29T15:51:11;12.80;;;5.38;;
48578;SDS011;34357;51.948;6.132;2023-03-29T15:53:38;10.77;;;5.85;;
48578;SDS011;34357;51.948;6.132;2023-03-29T15:56:05;10.82;;;4.97;;
48578;SDS011;34357;51.948;6.132;2023-03-29T15:58:34;11.65;;;4.80;;
48578;SDS011;34357;51.948;6.132;2023-03-29T16:01:08;11.82;;;5.22;;
48578;SDS011;34357;51.948;6.132;2023-03-29T16:03:47;7.85;;;4.50;;
48578;SDS011;34357;51.948;6.132;2023-03-29T16:06:13;8.98;;;4.43;;
48578;SDS011;34357;51.948;6.132;2023-03-29T16:08:40;10.07;;;4.25;;
48578;SDS011;34357;51.948;6.132;2023-03-29T16:11:06;5.45;;;3.90;;
48578;SDS011;34357;51.948;6.132;2023-03-29T16:13:32;5.97;;;3.80;;
48578;SDS011;34357;51.948;6.132;2023-03-29T16:15:57;8.70;;;3.83;;
48578;SDS011;34357;51.948;6.132;2023-03-29T16:18:23;7.47;;;3.63;;
48578;SDS011;34357;51.948;6.132;2023-03-29T16:20:49;5.55;;;3.60;;
48578;SDS011;34357;51.948;6.132;2023-03-29T16:23:15;8.07;;;3.92;;
48578;SDS011;34357;51.948;6.132;2023-03-29T16:25:41;7.63;;;3.25;;
48578;SDS011;34357;51.948;6.132;2023-03-29T16:28:07;6.20;;;3.55;;
48578;SDS011;34357;51.948;6.132;2023-03-29T16:30:34;8.77;;;3.88;;
48578;SDS011;34357;51.948;6.132;2023-03-29T16:33:01;7.35;;;3.65;;
48578;SDS011;34357;51.948;6.132;2023-03-29T16:35:33;7.88;;;3.53;;
48578;SDS011;34357;51.948;6.132;2023-03-29T16:38:01;7.57;;;3.78;;
48578;SDS011;34357;51.948;6.132;2023-03-29T16:40:27;7.90;;;3.75;;
48578;SDS011;34357;51.948;6.132;2023-03-29T16:42:52;9.48;;;4.50;;
48578;SDS011;34357;51.948;6.132;2023-03-29T16:45:18;9.90;;;4.97;;
48578;SDS011;34357;51.948;6.132;2023-03-29T16:47:44;6.97;;;4.13;;
48578;SDS011;34357;51.948;6.132;2023-03-29T16:50:11;10.77;;;5.20;;
48578;SDS011;34357;51.948;6.132;2023-03-29T16:52:42;10.98;;;4.95;;
48578;SDS011;34357;51.948;6.132;2023-03-29T16:55:08;12.57;;;5.20;;
48578;SDS011;34357;51.948;6.132;2023-03-29T16:57:39;9.73;;;5.80;;
48578;SDS011;34357;51.948;6.132;2023-03-29T17:00:06;9.73;;;5.30;;
48578;SDS011;34357;51.948;6.132;2023-03-29T17:02:35;5.90;;;4.20;;
48578;SDS011;34357;51.948;6.132;2023-03-29T17:05:01;7.10;;;4.45;;
48578;SDS011;34357;51.948;6.132;2023-03-29T17:07:27;8.30;;;4.82;;
48578;SDS011;34357;51.948;6.132;2023-03-29T17:09:53;9.40;;;5.50;;